sensor_id;sensor_type;location;lat;lon;timestamp;pressure;altitude;pressure_sealevel;temperature;humidity
50867;BME280;36839;51.946;21.002;2023-05-29T00:01:15;100481.30;;;7.55;100.00
50867;BME280;36839;51.946;21.002;2023-05-29T00:03:46;100478.00;;;7.54;100.00
50867;BME280;36839;51.946;21.002;2023-05-29T00:06:19;100477.27;;;7.53;100.00
50867;BME280;36839;51.946;21.002;2023-05-29T00:08:48;100478.20;;;7.53;100.00
50867;BME280;36839;51.946;21.002;2023-05-29T00:11:17;100474.44;;;7.49;100.00
50867;BME280;36839;51.946;21.002;2023-05-29T00:13:45;100467.97;;;7.48;100.00
50867;BME280;36839;51.946;21.002;2023-05-29T00:16:24;100474.95;;;7.48;100.00
50867;BME280;36839;51.946;21.002;2023-05-29T00:18:54;100478.27;;;7.45;100.00
50867;BME280;36839;51.946;21.002;2023-05-29T00:21:21;100477.13;;;7.43;100.00
50867;BME280;36839;51.946;21.002;2023-05-29T00:23:48;100470.78;;;7.39;100.00
50867;BME280;36839;51.946;21.002;2023-05-29T00:26:17;100474.07;;;7.37;100.00
50867;BME280;36839;51.946;21.002;2023-05-29T00:28:52;100473.52;;;7.37;100.00
50867;BME280;36839;51.946;21.002;2023-05-29T00:31:23;100472.56;;;7.38;100.00
50867;BME280;36839;51.946;21.002;2023-05-29T00:33:54;100475.08;;;7.40;100.00
50867;BME280;36839;51.946;21.002;2023-05-29T00:36:23;100474.20;;;7.40;100.00
50867;BME280;36839;51.946;21.002;2023-05-29T00:38:51;100473.05;;;7.35;100.00
50867;BME280;36839;51.946;21.002;2023-05-29T00:41:20;100472.70;;;7.34;100.00
50867;BME280;36839;51.946;21.002;2023-05-29T00:43:48;100469.21;;;7.32;100.00
50867;BME280;36839;51.946;21.002;2023-05-29T00:46:16;100471.58;;;7.28;100.00
50867;BME280;36839;51.946;21.002;2023-05-29T00:48:47;100469.17;;;7.23;100.00
50867;BME280;36839;51.946;21.002;2023-05-29T00:51:16;100464.55;;;7.19;100.00
50867;BME280;36839;51.946;21.002;2023-05-29T00:53:48;100465.41;;;7.17;100.00
50867;BME280;36839;51.946;21.002;2023-05-29T00:56:18;100463.47;;;7.16;100.00
50867;BME280;36839;51.946;21.002;2023-05-29T00:58:52;100463.30;;;7.16;100.00
50867;BME280;36839;51.946;21.002;2023-05-29T01:01:23;100464.66;;;7.12;100.00
50867;BME280;36839;51.946;21.002;2023-05-29T01:03:55;100464.27;;;7.08;100.00
50867;BME280;36839;51.946;21.002;2023-05-29T01:06:35;100463.81;;;7.04;100.00
50867;BME280;36839;51.946;21.002;2023-05-29T01:09:07;100462.93;;;7.04;100.00
50867;BME280;36839;51.946;21.002;2023-05-29T01:11:52;100463.01;;;7.04;100.00
50867;BME280;36839;51.946;21.002;2023-05-29T01:14:45;100463.58;;;7.05;100.00
50867;BME280;36839;51.946;21.002;2023-05-29T01:17:21;100459.55;;;7.04;100.00
50867;BME280;36839;51.946;21.002;2023-05-29T01:20:12;100452.69;;;7.02;100.00
50867;BME280;36839;51.946;21.002;2023-05-29T01:23:01;100453.04;;;6.99;100.00
50867;BME280;36839;51.946;21.002;2023-05-29T01:25:50;100454.05;;;6.97;100.00
50867;BME280;36839;51.946;21.002;2023-05-29T01:28:49;100456.95;;;6.96;100.00
50867;BME280;36839;51.946;21.002;2023-05-29T01:31:21;100460.86;;;6.92;100.00
50867;BME280;36839;51.946;21.002;2023-05-29T01:33:58;100457.63;;;6.87;100.00
50867;BME280;36839;51.946;21.002;2023-05-29T01:36:37;100462.12;;;6.84;100.00
50867;BME280;36839;51.946;21.002;2023-05-29T01:39:10;100461.58;;;6.82;100.00
50867;BME280;36839;51.946;21.002;2023-05-29T01:41:41;100458.98;;;6.80;100.00
50867;BME280;36839;51.946;21.002;2023-05-29T01:44:14;100461.59;;;6.78;100.00
50867;BME280;36839;51.946;21.002;2023-05-29T01:46:52;100461.66;;;6.74;100.00
50867;BME280;36839;51.946;21.002;2023-05-29T01:49:23;100460.13;;;6.70;100.00
50867;BME280;36839;51.946;21.002;2023-05-29T01:51:52;100459.29;;;6.66;100.00
50867;BME280;36839;51.946;21.002;2023-05-29T01:54:20;100459.27;;;6.64;100.00
50867;BME280;36839;51.946;21.002;2023-05-29T01:57:02;100454.55;;;6.61;100.00
50867;BME280;36839;51.946;21.002;2023-05-29T01:59:33;100451.88;;;6.60;100.00
50867;BME280;36839;51.946;21.002;2023-05-29T02:02:08;100451.93;;;6.57;100.00
50867;BME280;36839;51.946;21.002;2023-05-29T02:04:36;100448.57;;;6.54;100.00
50867;BME280;36839;51.946;21.002;2023-05-29T02:07:05;100450.15;;;6.52;100.00
50867;BME280;36839;51.946;21.002;2023-05-29T02:09:35;100445.84;;;6.50;100.00
50867;BME280;36839;51.946;21.002;2023-05-29T02:12:03;100444.68;;;6.47;100.00
50867;BME280;36839;51.946;21.002;2023-05-29T02:14:30;100437.90;;;6.43;100.00
50867;BME280;36839;51.946;21.002;2023-05-29T02:17:02;100439.23;;;6.38;100.00
50867;BME280;36839;51.946;21.002;2023-05-29T02:19:29;100435.73;;;6.34;100.00
50867;BME280;36839;51.946;21.002;2023-05-29T02:22:00;100436.38;;;6.34;100.00
50867;BME280;36839;51.946;21.002;2023-05-29T02:24:28;100437.17;;;6.34;100.00
50867;BME280;36839;51.946;21.002;2023-05-29T02:26:55;100436.50;;;6.32;100.00
50867;BME280;36839;51.946;21.002;2023-05-29T02:29:24;100430.73;;;6.26;100.00
50867;BME280;36839;51.946;21.002;2023-05-29T02:31:52;100432.55;;;6.23;100.00
50867;BME280;36839;51.946;21.002;2023-05-29T02:34:19;100434.33;;;6.19;100.00
50867;BME280;36839;51.946;21.002;2023-05-29T02:36:51;100429.55;;;6.16;100.00
50867;BME280;36839;51.946;21.002;2023-05-29T02:39:26;100429.58;;;6.17;100.00
50867;BME280;36839;51.946;21.002;2023-05-29T02:41:53;100422.40;;;6.18;100.00
50867;BME280;36839;51.946;21.002;2023-05-29T02:44:22;100425.52;;;6.18;100.00
50867;BME280;36839;51.946;21.002;2023-05-29T02:46:53;100418.27;;;6.14;100.00
50867;BME280;36839;51.946;21.002;2023-05-29T02:49:22;100418.07;;;6.11;100.00
50867;BME280;36839;51.946;21.002;2023-05-29T02:51:51;100419.83;;;6.12;100.00
50867;BME280;36839;51.946;21.002;2023-05-29T02:54:24;100422.23;;;6.14;100.00
50867;BME280;36839;51.946;21.002;2023-05-29T02:56:54;100422.92;;;6.17;100.00
50867;BME280;36839;51.946;21.002;2023-05-29T02:59:23;100424.60;;;6.18;100.00
50867;BME280;36839;51.946;21.002;2023-05-29T03:01:52;100422.80;;;6.19;100.00
50867;BME280;36839;51.946;21.002;2023-05-29T03:04:21;100424.36;;;6.19;100.00
50867;BME280;36839;51.946;21.002;2023-05-29T03:06:48;100423.48;;;6.21;100.00
50867;BME280;36839;51.946;21.002;2023-05-29T03:09:20;100425.04;;;6.26;100.00
50867;BME280;36839;51.946;21.002;2023-05-29T03:11:49;100424.69;;;6.31;100.00
50867;BME280;36839;51.946;21.002;2023-05-29T03:14:24;100423.50;;;6.37;100.00
50867;BME280;36839;51.946;21.002;2023-05-29T03:16:55;100424.09;;;6.41;100.00
50867;BME280;36839;51.946;21.002;2023-05-29T03:19:30;100422.31;;;6.44;100.00
50867;BME280;36839;51.946;21.002;2023-05-29T03:21:59;100422.20;;;6.48;100.00
50867;BME280;36839;51.946;21.002;2023-05-29T03:24:34;100428.02;;;6.53;100.00
50867;BME280;36839;51.946;21.002;2023-05-29T03:27:04;100431.77;;;6.58;100.00
50867;BME280;36839;51.946;21.002;2023-05-29T03:29:33;100434.46;;;6.64;100.00
50867;BME280;36839;51.946;21.002;2023-05-29T03:32:04;100436.73;;;6.67;100.00
50867;BME280;36839;51.946;21.002;2023-05-29T03:34:33;100439.35;;;6.69;100.00
50867;BME280;36839;51.946;21.002;2023-05-29T03:37:01;100440.40;;;6.69;100.00
50867;BME280;36839;51.946;21.002;2023-05-29T03:39:33;100438.17;;;6.70;100.00
50867;BME280;36839;51.946;21.002;2023-05-29T03:42:06;100444.69;;;6.76;100.00
50867;BME280;36839;51.946;21.002;2023-05-29T03:44:33;100447.63;;;6.82;100.00
50867;BME280;36839;51.946;21.002;2023-05-29T03:47:07;100448.59;;;6.89;100.00
50867;BME280;36839;51.946;21.002;2023-05-29T03:49:38;100450.59;;;6.97;100.00
50867;BME280;36839;51.946;21.002;2023-05-29T03:52:05;100448.90;;;7.08;100.00
50867;BME280;36839;51.946;21.002;2023-05-29T03:54:36;100448.99;;;7.18;100.00
50867;BME280;36839;51.946;21.002;2023-05-29T03:57:05;100453.03;;;7.29;100.00
50867;BME280;36839;51.946;21.002;2023-05-29T03:59:34;100456.41;;;7.41;100.00
50867;BME280;36839;51.946;21.002;2023-05-29T04:02:05;100459.74;;;7.51;100.00
50867;BME280;36839;51.946;21.002;2023-05-29T04:04:33;100465.99;;;7.61;100.00
50867;BME280;36839;51.946;21.002;2023-05-29T04:07:02;100473.27;;;7.71;100.00
50867;BME280;36839;51.946;21.002;2023-05-29T04:09:33;100476.29;;;7.82;100.00
50867;BME280;36839;51.946;21.002;2023-05-29T04:12:02;100472.98;;;7.95;100.00
50867;BME280;36839;51.946;21.002;2023-05-29T04:14:31;100474.14;;;8.09;100.00
50867;BME280;36839;51.946;21.002;2023-05-29T04:17:01;100470.74;;;8.22;100.00
50867;BME280;36839;51.946;21.002;2023-05-29T04:19:32;100471.02;;;8.34;100.00
50867;BME280;36839;51.946;21.002;2023-05-29T04:22:00;100467.52;;;8.44;100.00
50867;BME280;36839;51.946;21.002;2023-05-29T04:24:28;100468.35;;;8.54;100.00
50867;BME280;36839;51.946;21.002;2023-05-29T04:26:58;100469.08;;;8.66;100.00
50867;BME280;36839;51.946;21.002;2023-05-29T04:29:31;100473.77;;;8.80;100.00
50867;BME280;36839;51.946;21.002;2023-05-29T04:32:03;100473.80;;;8.94;100.00
50867;BME280;36839;51.946;21.002;2023-05-29T04:34:34;100473.38;;;9.07;100.00
50867;BME280;36839;51.946;21.002;2023-05-29T04:37:02;100476.17;;;9.22;100.00
50867;BME280;36839;51.946;21.002;2023-05-29T04:39:32;100477.52;;;9.36;100.00
50867;BME280;36839;51.946;21.002;2023-05-29T04:42:01;100472.48;;;9.52;100.00
50867;BME280;36839;51.946;21.002;2023-05-29T04:44:32;100474.80;;;9.66;100.00
50867;BME280;36839;51.946;21.002;2023-05-29T04:47:01;100478.17;;;9.82;100.00
50867;BME280;36839;51.946;21.002;2023-05-29T04:49:32;100478.33;;;9.96;100.00
50867;BME280;36839;51.946;21.002;2023-05-29T04:52:04;100476.27;;;10.12;100.00
50867;BME280;36839;51.946;21.002;2023-05-29T04:54:36;100471.72;;;10.29;100.00
50867;BME280;36839;51.946;21.002;2023-05-29T04:57:06;100474.58;;;10.46;100.00
50867;BME280;36839;51.946;21.002;2023-05-29T04:59:41;100470.13;;;10.63;100.00
50867;BME280;36839;51.946;21.002;2023-05-29T05:02:11;100468.91;;;10.79;100.00
50867;BME280;36839;51.946;21.002;2023-05-29T05:04:38;100464.15;;;10.95;100.00
50867;BME280;36839;51.946;21.002;2023-05-29T05:07:06;100465.63;;;11.09;100.00
50867;BME280;36839;51.946;21.002;2023-05-29T05:09:34;100464.59;;;11.22;100.00
50867;BME280;36839;51.946;21.002;2023-05-29T05:12:02;100468.58;;;11.35;100.00
50867;BME280;36839;51.946;21.002;2023-05-29T05:14:31;100466.70;;;11.50;100.00
50867;BME280;36839;51.946;21.002;2023-05-29T05:17:04;100462.73;;;11.65;100.00
50867;BME280;36839;51.946;21.002;2023-05-29T05:19:31;100465.90;;;11.81;100.00
50867;BME280;36839;51.946;21.002;2023-05-29T05:22:03;100466.98;;;11.95;100.00
50867;BME280;36839;51.946;21.002;2023-05-29T05:24:30;100467.02;;;12.07;100.00
50867;BME280;36839;51.946;21.002;2023-05-29T05:27:00;100463.94;;;12.21;100.00
50867;BME280;36839;51.946;21.002;2023-05-29T05:29:30;100463.73;;;12.34;100.00
50867;BME280;36839;51.946;21.002;2023-05-29T05:32:10;100460.30;;;12.47;100.00
50867;BME280;36839;51.946;21.002;2023-05-29T05:34:38;100464.11;;;12.61;100.00
50867;BME280;36839;51.946;21.002;2023-05-29T05:37:07;100465.71;;;12.76;100.00
50867;BME280;36839;51.946;21.002;2023-05-29T05:39:36;100462.19;;;12.89;100.00
50867;BME280;36839;51.946;21.002;2023-05-29T05:42:04;100465.84;;;13.02;100.00
50867;BME280;36839;51.946;21.002;2023-05-29T05:44:33;100466.14;;;13.17;100.00
50867;BME280;36839;51.946;21.002;2023-05-29T05:47:01;100466.95;;;13.31;100.00
50867;BME280;36839;51.946;21.002;2023-05-29T05:49:30;100464.67;;;13.45;100.00
50867;BME280;36839;51.946;21.002;2023-05-29T05:51:59;100469.29;;;13.60;100.00
50867;BME280;36839;51.946;21.002;2023-05-29T05:54:27;100463.99;;;13.74;100.00
50867;BME280;36839;51.946;21.002;2023-05-29T05:56:57;100461.20;;;13.88;100.00
50867;BME280;36839;51.946;21.002;2023-05-29T05:59:27;100460.48;;;14.04;100.00
50867;BME280;36839;51.946;21.002;2023-05-29T06:01:56;100458.28;;;14.19;100.00
50867;BME280;36839;51.946;21.002;2023-05-29T06:04:29;100455.32;;;14.36;100.00
50867;BME280;36839;51.946;21.002;2023-05-29T06:06:59;100457.11;;;14.51;100.00
50867;BME280;36839;51.946;21.002;2023-05-29T06:09:36;100454.60;;;14.66;100.00
50867;BME280;36839;51.946;21.002;2023-05-29T06:12:10;100457.90;;;14.81;100.00
50867;BME280;36839;51.946;21.002;2023-05-29T06:14:39;100458.50;;;14.94;100.00
50867;BME280;36839;51.946;21.002;2023-05-29T06:17:16;100458.18;;;15.08;100.00
50867;BME280;36839;51.946;21.002;2023-05-29T06:19:43;100461.09;;;15.27;100.00
50867;BME280;36839;51.946;21.002;2023-05-29T06:22:10;100461.00;;;15.44;100.00
50867;BME280;36839;51.946;21.002;2023-05-29T06:24:39;100458.23;;;15.58;100.00
50867;BME280;36839;51.946;21.002;2023-05-29T06:27:08;100453.11;;;15.72;99.65
50867;BME280;36839;51.946;21.002;2023-05-29T06:29:37;100454.55;;;15.84;98.25
50867;BME280;36839;51.946;21.002;2023-05-29T06:32:10;100453.77;;;15.97;96.84
50867;BME280;36839;51.946;21.002;2023-05-29T06:35:00;100457.16;;;16.12;95.33
50867;BME280;36839;51.946;21.002;2023-05-29T06:37:39;100455.54;;;16.23;94.56
50867;BME280;36839;51.946;21.002;2023-05-29T06:40:07;100458.33;;;16.38;93.11
50867;BME280;36839;51.946;21.002;2023-05-29T06:42:34;100457.95;;;16.51;91.61
50867;BME280;36839;51.946;21.002;2023-05-29T06:45:04;100456.80;;;16.63;91.57
50867;BME280;36839;51.946;21.002;2023-05-29T06:47:43;100462.42;;;16.78;90.40
50867;BME280;36839;51.946;21.002;2023-05-29T06:50:16;100466.77;;;16.90;87.99
50867;BME280;36839;51.946;21.002;2023-05-29T06:52:44;100460.77;;;17.01;84.74
50867;BME280;36839;51.946;21.002;2023-05-29T06:55:12;100462.20;;;17.14;85.39
50867;BME280;36839;51.946;21.002;2023-05-29T06:57:41;100461.98;;;17.28;82.57
50867;BME280;36839;51.946;21.002;2023-05-29T07:00:11;100459.83;;;17.41;81.49
50867;BME280;36839;51.946;21.002;2023-05-29T07:02:43;100462.96;;;17.49;78.10
50867;BME280;36839;51.946;21.002;2023-05-29T07:05:11;100459.05;;;17.54;72.34
50867;BME280;36839;51.946;21.002;2023-05-29T07:07:39;100460.48;;;17.64;71.39
50867;BME280;36839;51.946;21.002;2023-05-29T07:10:08;100465.05;;;17.76;70.02
50867;BME280;36839;51.946;21.002;2023-05-29T07:12:49;100472.19;;;17.92;68.80
50867;BME280;36839;51.946;21.002;2023-05-29T07:15:17;100472.58;;;18.07;65.74
50867;BME280;36839;51.946;21.002;2023-05-29T07:17:48;100470.61;;;18.13;61.34
50867;BME280;36839;51.946;21.002;2023-05-29T07:20:19;100474.97;;;18.15;57.82
50867;BME280;36839;51.946;21.002;2023-05-29T07:22:48;100473.65;;;18.21;56.69
50867;BME280;36839;51.946;21.002;2023-05-29T07:25:20;100473.34;;;18.28;54.92
50867;BME280;36839;51.946;21.002;2023-05-29T07:27:52;100472.73;;;18.34;54.16
50867;BME280;36839;51.946;21.002;2023-05-29T07:30:24;100471.45;;;18.43;54.01
50867;BME280;36839;51.946;21.002;2023-05-29T07:32:54;100474.83;;;18.56;53.36
50867;BME280;36839;51.946;21.002;2023-05-29T07:35:24;100470.62;;;18.54;48.74
50867;BME280;36839;51.946;21.002;2023-05-29T07:37:59;100470.70;;;18.58;49.28
50867;BME280;36839;51.946;21.002;2023-05-29T07:40:27;100470.33;;;18.66;49.40
50867;BME280;36839;51.946;21.002;2023-05-29T07:42:56;100469.20;;;18.80;49.15
50867;BME280;36839;51.946;21.002;2023-05-29T07:45:26;100468.62;;;18.93;48.85
50867;BME280;36839;51.946;21.002;2023-05-29T07:47:55;100470.41;;;19.09;50.15
50867;BME280;36839;51.946;21.002;2023-05-29T07:50:25;100470.91;;;19.29;51.32
50867;BME280;36839;51.946;21.002;2023-05-29T07:52:53;100476.95;;;19.44;51.50
50867;BME280;36839;51.946;21.002;2023-05-29T07:55:35;100472.93;;;19.66;51.33
50867;BME280;36839;51.946;21.002;2023-05-29T07:58:04;100476.43;;;19.79;49.52
50867;BME280;36839;51.946;21.002;2023-05-29T08:00:32;100472.86;;;19.90;50.78
50867;BME280;36839;51.946;21.002;2023-05-29T08:03:02;100473.33;;;19.95;47.58
50867;BME280;36839;51.946;21.002;2023-05-29T08:05:30;100474.07;;;20.04;47.44
50867;BME280;36839;51.946;21.002;2023-05-29T08:08:01;100470.48;;;19.95;45.28
50867;BME280;36839;51.946;21.002;2023-05-29T08:10:29;100468.36;;;19.82;45.70
50867;BME280;36839;51.946;21.002;2023-05-29T08:12:57;100464.52;;;19.68;45.93
50867;BME280;36839;51.946;21.002;2023-05-29T08:15:25;100468.36;;;19.74;47.95
50867;BME280;36839;51.946;21.002;2023-05-29T08:17:57;100471.09;;;19.92;47.86
50867;BME280;36839;51.946;21.002;2023-05-29T08:20:38;100473.15;;;20.02;45.83
50867;BME280;36839;51.946;21.002;2023-05-29T08:23:10;100474.22;;;19.94;43.60
50867;BME280;36839;51.946;21.002;2023-05-29T08:29:20;100477.61;;;20.04;43.89
50867;BME280;36839;51.946;21.002;2023-05-29T08:31:51;100479.33;;;20.10;43.85
50867;BME280;36839;51.946;21.002;2023-05-29T08:34:20;100479.81;;;20.12;43.67
50867;BME280;36839;51.946;21.002;2023-05-29T08:36:48;100477.61;;;20.13;43.24
50867;BME280;36839;51.946;21.002;2023-05-29T08:39:31;100477.02;;;20.26;43.65
50867;BME280;36839;51.946;21.002;2023-05-29T08:42:09;100474.06;;;20.33;42.72
50867;BME280;36839;51.946;21.002;2023-05-29T08:44:46;100479.41;;;20.36;43.22
50867;BME280;36839;51.946;21.002;2023-05-29T08:47:22;100479.55;;;20.40;44.64
50867;BME280;36839;51.946;21.002;2023-05-29T08:50:12;100479.04;;;20.44;45.28
50867;BME280;36839;51.946;21.002;2023-05-29T08:52:41;100479.44;;;20.62;44.91
50867;BME280;36839;51.946;21.002;2023-05-29T08:55:12;100478.70;;;20.72;42.26
50867;BME280;36839;51.946;21.002;2023-05-29T08:57:55;100478.29;;;20.76;42.06
50867;BME280;36839;51.946;21.002;2023-05-29T09:00:24;100477.90;;;20.74;42.36
50867;BME280;36839;51.946;21.002;2023-05-29T09:03:00;100478.76;;;20.72;42.03
50867;BME280;36839;51.946;21.002;2023-05-29T09:05:39;100477.63;;;20.75;43.26
50867;BME280;36839;51.946;21.002;2023-05-29T09:08:15;100479.27;;;20.74;42.17
50867;BME280;36839;51.946;21.002;2023-05-29T09:10:45;100477.45;;;20.61;41.91
50867;BME280;36839;51.946;21.002;2023-05-29T09:13:17;100477.73;;;20.70;40.29
50867;BME280;36839;51.946;21.002;2023-05-29T09:15:46;100470.90;;;20.77;40.01
50867;BME280;36839;51.946;21.002;2023-05-29T09:18:17;100472.23;;;20.89;40.94
50867;BME280;36839;51.946;21.002;2023-05-29T09:20:48;100464.99;;;20.91;40.75
50867;BME280;36839;51.946;21.002;2023-05-29T09:23:18;100467.44;;;21.04;41.31
50867;BME280;36839;51.946;21.002;2023-05-29T09:25:52;100461.73;;;20.97;41.27
50867;BME280;36839;51.946;21.002;2023-05-29T09:28:21;100467.19;;;20.80;40.72
50867;BME280;36839;51.946;21.002;2023-05-29T09:30:51;100466.61;;;20.69;39.97
50867;BME280;36839;51.946;21.002;2023-05-29T09:33:22;100466.27;;;20.61;41.08
50867;BME280;36839;51.946;21.002;2023-05-29T09:35:55;100467.52;;;20.62;40.43
50867;BME280;36839;51.946;21.002;2023-05-29T09:38:25;100465.30;;;20.72;40.02
50867;BME280;36839;51.946;21.002;2023-05-29T09:41:04;100464.61;;;20.85;39.42
50867;BME280;36839;51.946;21.002;2023-05-29T09:43:32;100457.34;;;20.99;40.09
50867;BME280;36839;51.946;21.002;2023-05-29T09:46:07;100458.89;;;21.10;40.10
50867;BME280;36839;51.946;21.002;2023-05-29T09:48:37;100452.58;;;21.31;42.19
50867;BME280;36839;51.946;21.002;2023-05-29T09:51:06;100455.23;;;21.64;41.34
50867;BME280;36839;51.946;21.002;2023-05-29T09:53:47;100451.02;;;21.93;41.46
50867;BME280;36839;51.946;21.002;2023-05-29T09:56:17;100453.23;;;22.10;40.06
50867;BME280;36839;51.946;21.002;2023-05-29T09:58:47;100452.63;;;22.18;38.61
50867;BME280;36839;51.946;21.002;2023-05-29T10:01:16;100449.54;;;22.20;38.35
50867;BME280;36839;51.946;21.002;2023-05-29T10:03:47;100445.73;;;22.26;39.71
50867;BME280;36839;51.946;21.002;2023-05-29T10:06:18;100447.39;;;22.42;38.96
50867;BME280;36839;51.946;21.002;2023-05-29T10:08:50;100445.45;;;22.52;38.67
50867;BME280;36839;51.946;21.002;2023-05-29T10:11:23;100447.32;;;22.50;37.28
50867;BME280;36839;51.946;21.002;2023-05-29T10:13:57;100448.04;;;22.55;38.24
50867;BME280;36839;51.946;21.002;2023-05-29T10:16:34;100449.03;;;22.47;37.96
50867;BME280;36839;51.946;21.002;2023-05-29T10:19:12;100451.65;;;22.46;37.40
50867;BME280;36839;51.946;21.002;2023-05-29T10:21:40;100451.01;;;22.33;37.33
50867;BME280;36839;51.946;21.002;2023-05-29T10:24:12;100447.86;;;22.20;37.42
50867;BME280;36839;51.946;21.002;2023-05-29T10:26:46;100449.21;;;22.34;37.52
50867;BME280;36839;51.946;21.002;2023-05-29T10:29:53;100444.71;;;22.56;37.30
50867;BME280;36839;51.946;21.002;2023-05-29T10:32:28;100446.08;;;22.75;38.02
50867;BME280;36839;51.946;21.002;2023-05-29T10:38:21;100444.17;;;22.85;36.63
50867;BME280;36839;51.946;21.002;2023-05-29T10:40:50;100442.89;;;22.72;36.42
50867;BME280;36839;51.946;21.002;2023-05-29T10:43:33;100438.49;;;22.59;36.08
50867;BME280;36839;51.946;21.002;2023-05-29T10:46:09;100436.59;;;22.47;36.27
50867;BME280;36839;51.946;21.002;2023-05-29T10:48:39;100431.91;;;22.54;36.02
50867;BME280;36839;51.946;21.002;2023-05-29T10:51:26;100430.84;;;22.66;35.79
50867;BME280;36839;51.946;21.002;2023-05-29T10:53:58;100424.36;;;22.90;36.51
50867;BME280;36839;51.946;21.002;2023-05-29T10:56:30;100425.56;;;23.06;36.95
50867;BME280;36839;51.946;21.002;2023-05-29T10:58:58;100425.86;;;23.08;36.28
50867;BME280;36839;51.946;21.002;2023-05-29T11:01:30;100419.46;;;22.98;37.58
50867;BME280;36839;51.946;21.002;2023-05-29T11:07:04;100421.32;;;23.07;36.91
50867;BME280;36839;51.946;21.002;2023-05-29T11:09:38;100417.13;;;22.98;35.95
50867;BME280;36839;51.946;21.002;2023-05-29T11:12:21;100415.16;;;22.97;36.23
50867;BME280;36839;51.946;21.002;2023-05-29T11:15:06;100408.98;;;23.02;36.34
50867;BME280;36839;51.946;21.002;2023-05-29T11:20:31;100408.51;;;23.28;36.25
50867;BME280;36839;51.946;21.002;2023-05-29T11:23:06;100408.13;;;23.48;37.28
50867;BME280;36839;51.946;21.002;2023-05-29T11:25:40;100407.06;;;23.40;37.47
50867;BME280;36839;51.946;21.002;2023-05-29T11:28:08;100402.85;;;23.59;36.91
50867;BME280;36839;51.946;21.002;2023-05-29T11:30:42;100403.33;;;23.89;37.09
50867;BME280;36839;51.946;21.002;2023-05-29T11:33:25;100404.84;;;24.15;36.04
50867;BME280;36839;51.946;21.002;2023-05-29T11:36:02;100400.05;;;24.32;35.43
50867;BME280;36839;51.946;21.002;2023-05-29T11:38:31;100395.47;;;24.25;35.84
50867;BME280;36839;51.946;21.002;2023-05-29T11:41:01;100394.52;;;24.22;36.00
50867;BME280;36839;51.946;21.002;2023-05-29T11:43:38;100397.59;;;24.28;36.49
50867;BME280;36839;51.946;21.002;2023-05-29T11:46:17;100397.18;;;24.28;35.53
50867;BME280;36839;51.946;21.002;2023-05-29T11:48:50;100397.08;;;24.38;35.37
50867;BME280;36839;51.946;21.002;2023-05-29T11:51:19;100394.95;;;24.50;35.50
50867;BME280;36839;51.946;21.002;2023-05-29T11:53:48;100397.84;;;24.79;35.65
50867;BME280;36839;51.946;21.002;2023-05-29T11:56:21;100399.59;;;25.05;35.67
50867;BME280;36839;51.946;21.002;2023-05-29T11:58:50;100394.60;;;25.24;35.14
50867;BME280;36839;51.946;21.002;2023-05-29T12:01:19;100395.96;;;25.29;34.47
50867;BME280;36839;51.946;21.002;2023-05-29T12:03:49;100397.70;;;25.37;34.36
50867;BME280;36839;51.946;21.002;2023-05-29T12:06:31;100393.58;;;25.51;33.95
50867;BME280;36839;51.946;21.002;2023-05-29T12:09:03;100394.33;;;25.68;32.58
50867;BME280;36839;51.946;21.002;2023-05-29T12:12:06;100389.35;;;25.49;33.02
50867;BME280;36839;51.946;21.002;2023-05-29T12:14:40;100385.54;;;25.17;33.73
50867;BME280;36839;51.946;21.002;2023-05-29T12:17:10;100383.45;;;25.21;34.75
50867;BME280;36839;51.946;21.002;2023-05-29T12:19:40;100381.29;;;25.47;35.07
50867;BME280;36839;51.946;21.002;2023-05-29T12:22:10;100378.91;;;25.82;34.80
50867;BME280;36839;51.946;21.002;2023-05-29T12:24:44;100375.17;;;26.03;33.57
50867;BME280;36839;51.946;21.002;2023-05-29T12:27:11;100373.55;;;26.22;33.16
50867;BME280;36839;51.946;21.002;2023-05-29T12:29:40;100371.77;;;26.22;32.54
50867;BME280;36839;51.946;21.002;2023-05-29T12:32:10;100375.38;;;26.09;32.52
50867;BME280;36839;51.946;21.002;2023-05-29T12:34:40;100377.32;;;25.80;31.97
50867;BME280;36839;51.946;21.002;2023-05-29T12:37:23;100371.14;;;25.48;32.13
50867;BME280;36839;51.946;21.002;2023-05-29T12:40:13;100369.08;;;25.05;32.74
50867;BME280;36839;51.946;21.002;2023-05-29T12:42:56;100365.66;;;24.83;34.43
50867;BME280;36839;51.946;21.002;2023-05-29T12:45:28;100366.18;;;24.69;36.32
50867;BME280;36839;51.946;21.002;2023-05-29T12:47:59;100363.48;;;24.53;35.83
50867;BME280;36839;51.946;21.002;2023-05-29T12:50:37;100360.33;;;24.47;34.91
50867;BME280;36839;51.946;21.002;2023-05-29T12:53:28;100363.29;;;24.58;35.21
50867;BME280;36839;51.946;21.002;2023-05-29T12:56:01;100358.53;;;24.41;35.27
50867;BME280;36839;51.946;21.002;2023-05-29T12:58:44;100357.06;;;24.13;36.37
50867;BME280;36839;51.946;21.002;2023-05-29T13:01:17;100354.90;;;23.92;35.53
50867;BME280;36839;51.946;21.002;2023-05-29T13:03:51;100351.34;;;24.08;36.50
50867;BME280;36839;51.946;21.002;2023-05-29T13:06:20;100349.35;;;24.44;35.93
50867;BME280;36839;51.946;21.002;2023-05-29T13:08:52;100350.22;;;24.85;37.05
50867;BME280;36839;51.946;21.002;2023-05-29T13:11:21;100343.02;;;25.09;34.31
50867;BME280;36839;51.946;21.002;2023-05-29T13:13:53;100342.81;;;25.23;33.65
50867;BME280;36839;51.946;21.002;2023-05-29T13:16:21;100341.41;;;25.56;32.35